createdAt,value
2023-03-31T00:04:30.693Z,8.51
2023-03-31T00:10:16.847Z,8.46
2023-03-31T00:15:44.597Z,8.48
2023-03-31T00:21:21.650Z,8.48
2023-03-31T00:26:50.569Z,8.53
2023-03-31T00:32:18.582Z,8.53
2023-03-31T00:37:43.675Z,8.51
2023-03-31T00:43:11.616Z,8.50
2023-03-31T00:48:36.635Z,8.52
2023-03-31T00:54:06.697Z,8.64
2023-03-31T00:59:44.635Z,8.68
2023-03-31T01:05:11.650Z,8.71
2023-03-31T01:10:36.655Z,8.77
2023-03-31T01:16:09.629Z,8.88
2023-03-31T01:22:03.690Z,9.01
2023-03-31T01:27:50.737Z,9.14
2023-03-31T01:33:52.714Z,9.22
2023-03-31T01:39:38.685Z,9.27
2023-03-31T01:45:18.654Z,9.32
2023-03-31T01:50:47.663Z,9.34
2023-03-31T01:56:18.664Z,9.30
2023-03-31T02:01:52.795Z,9.25
2023-03-31T02:07:19.639Z,9.34
2023-03-31T02:12:50.728Z,9.32
2023-03-31T02:18:23.653Z,9.29
2023-03-31T02:23:48.659Z,9.27
2023-03-31T02:29:14.620Z,9.27
2023-03-31T02:34:42.665Z,9.25
2023-03-31T02:40:11.638Z,9.23
2023-03-31T02:45:53.682Z,9.17
2023-03-31T02:51:45.654Z,9.16
2023-03-31T02:57:39.676Z,9.26
2023-03-31T03:03:19.767Z,9.28
2023-03-31T03:09:03.642Z,9.30
2023-03-31T03:14:40.659Z,9.31
2023-03-31T03:20:08.683Z,9.29
2023-03-31T03:25:36.654Z,9.27
2023-03-31T03:31:02.728Z,9.22
2023-03-31T03:36:26.764Z,9.13
2023-03-31T03:41:54.707Z,9.08
2023-03-31T03:47:18.838Z,9.00
2023-03-31T03:52:43.664Z,8.91
2023-03-31T03:58:10.699Z,8.86
2023-03-31T04:03:37.726Z,8.78
2023-03-31T04:09:02.832Z,8.74
2023-03-31T04:14:37.741Z,8.75
2023-03-31T04:20:08.743Z,8.73
2023-03-31T04:25:37.716Z,8.73
2023-03-31T04:31:05.692Z,8.71
2023-03-31T04:36:30.918Z,8.68
2023-03-31T04:41:55.723Z,8.69
2023-03-31T04:47:22.747Z,8.67
2023-03-31T04:52:49.864Z,8.68
2023-03-31T04:58:14.678Z,8.68
2023-03-31T05:03:44.784Z,8.68
2023-03-31T05:09:10.790Z,8.68
2023-03-31T05:14:42.760Z,8.68
2023-03-31T05:20:12.759Z,8.68
2023-03-31T05:25:43.752Z,8.66
2023-03-31T05:31:11.806Z,8.64
2023-03-31T05:36:54.782Z,8.66
2023-03-31T05:42:19.749Z,8.70
2023-03-31T05:47:44.832Z,8.74
2023-03-31T05:53:11.815Z,8.80
2023-03-31T05:58:38.769Z,8.82
2023-03-31T06:04:04.072Z,8.87
2023-03-31T06:09:45.863Z,8.88
2023-03-31T06:15:19.847Z,8.89
2023-03-31T06:20:51.828Z,8.98
2023-03-31T06:26:22.839Z,9.01
2023-03-31T06:31:50.942Z,9.07
2023-03-31T06:37:15.876Z,9.13
2023-03-31T06:42:41.972Z,9.20
2023-03-31T06:48:14.788Z,9.27
2023-03-31T06:53:39.785Z,9.36
2023-03-31T06:59:33.785Z,9.49
2023-03-31T07:05:01.812Z,9.62
2023-03-31T07:10:29.796Z,9.65
2023-03-31T07:15:57.831Z,9.70
2023-03-31T07:21:24.799Z,9.70
2023-03-31T07:26:49.831Z,9.77
2023-03-31T07:32:13.835Z,9.82
2023-03-31T07:37:44.841Z,9.86
2023-03-31T07:43:09.818Z,9.94
2023-03-31T07:48:35.915Z,9.99
2023-03-31T07:54:10.824Z,10.03
2023-03-31T07:59:36.809Z,10.06
2023-03-31T08:05:03.814Z,10.12
2023-03-31T08:10:36.017Z,10.12
2023-03-31T08:16:08.100Z,10.21
2023-03-31T08:21:32.884Z,10.27
2023-03-31T08:26:59.941Z,10.29
2023-03-31T08:32:24.891Z,10.44
2023-03-31T08:37:49.830Z,10.58
2023-03-31T08:43:23.851Z,10.59
2023-03-31T08:49:02.865Z,10.47
2023-03-31T08:54:39.025Z,10.54
2023-03-31T09:00:13.906Z,10.46
2023-03-31T09:05:59.996Z,10.51
2023-03-31T09:11:43.839Z,10.42
2023-03-31T09:17:22.920Z,10.51
2023-03-31T09:22:51.836Z,10.57
2023-03-31T09:28:27.888Z,10.57
2023-03-31T09:33:58.878Z,10.52
2023-03-31T09:39:24.857Z,10.50
2023-03-31T09:44:55.869Z,10.41
2023-03-31T09:50:25.152Z,10.33
2023-03-31T09:56:04.272Z,10.28
2023-03-31T10:01:33.955Z,10.21
2023-03-31T10:07:01.934Z,10.12
2023-03-31T10:12:30.956Z,10.00
2023-03-31T10:18:01.180Z,10.01
2023-03-31T10:23:36.894Z,9.93
2023-03-31T10:29:02.943Z,9.91
2023-03-31T10:39:55.910Z,9.79
2023-03-31T10:45:37.078Z,9.77
2023-03-31T10:51:04.183Z,9.72
2023-03-31T10:56:49.706Z,9.70
2023-03-31T11:02:30.902Z,9.71
2023-03-31T11:08:11.251Z,9.69
2023-03-31T11:13:51.349Z,9.76
2023-03-31T11:19:30.229Z,9.73
2023-03-31T11:25:28.884Z,9.78
2023-03-31T11:31:06.399Z,9.74
2023-03-31T11:36:48.744Z,9.78
2023-03-31T11:42:23.977Z,9.72
2023-03-31T11:47:57.068Z,9.75
2023-03-31T11:53:27.927Z,9.75
2023-03-31T11:58:58.928Z,9.91
2023-03-31T12:04:29.948Z,10.03
2023-03-31T12:10:02.918Z,10.31
2023-03-31T12:15:36.133Z,10.47
2023-03-31T12:21:06.923Z,10.78
2023-03-31T12:26:45.943Z,11.23
2023-03-31T12:32:14.930Z,11.53
2023-03-31T12:38:04.973Z,11.98
2023-03-31T12:43:49.932Z,12.16
2023-03-31T12:49:26.923Z,12.36
2023-03-31T12:55:27.000Z,12.57
2023-03-31T13:00:52.096Z,12.72
2023-03-31T13:06:20.946Z,13.01
2023-03-31T13:12:01.175Z,13.06
2023-03-31T13:17:33.990Z,13.50
2023-03-31T13:23:04.030Z,13.06
2023-03-31T13:28:42.957Z,12.27
2023-03-31T13:34:10.940Z,12.18
2023-03-31T13:40:11.966Z,12.02
2023-03-31T13:45:54.146Z,11.96
2023-03-31T13:51:32.991Z,11.78
2023-03-31T13:57:12.009Z,11.64
2023-03-31T14:03:04.059Z,11.27
2023-03-31T14:08:30.993Z,10.94
2023-03-31T14:14:08.948Z,10.91
2023-03-31T14:19:57.947Z,10.99
2023-03-31T14:25:31.015Z,11.02
2023-03-31T14:31:05.077Z,11.00
2023-03-31T14:36:41.027Z,10.92
2023-03-31T14:42:09.037Z,11.00
2023-03-31T14:47:37.071Z,10.99
2023-03-31T14:53:07.995Z,11.07
2023-03-31T14:58:37.029Z,10.96
2023-03-31T15:04:05.038Z,10.97
2023-03-31T15:09:44.201Z,11.15
2023-03-31T15:15:14.488Z,11.29
2023-03-31T15:20:51.029Z,11.31
2023-03-31T15:26:27.990Z,11.16
2023-03-31T15:31:57.188Z,11.12
2023-03-31T15:37:29.036Z,11.12
2023-03-31T15:48:35.037Z,11.40
2023-03-31T15:54:03.182Z,11.45
2023-03-31T15:59:51.266Z,11.40
2023-03-31T16:05:40.496Z,11.34
2023-03-31T16:11:23.163Z,11.35
2023-03-31T16:16:57.028Z,11.51
2023-03-31T16:22:23.170Z,11.70
2023-03-31T16:27:53.106Z,11.66
2023-03-31T16:33:22.252Z,11.60
2023-03-31T16:38:47.053Z,11.70
2023-03-31T16:44:13.033Z,11.75
2023-03-31T16:49:41.042Z,11.57
2023-03-31T16:55:06.372Z,11.40
2023-03-31T17:00:31.047Z,11.23
2023-03-31T17:06:00.074Z,11.06
2023-03-31T17:11:26.421Z,11.01
2023-03-31T17:16:50.143Z,10.96
2023-03-31T17:22:18.094Z,10.84
2023-03-31T17:27:44.088Z,10.75
2023-03-31T17:33:09.114Z,10.62
2023-03-31T17:38:37.098Z,10.50
2023-03-31T17:44:02.124Z,10.39
2023-03-31T17:49:26.184Z,10.29
2023-03-31T17:54:54.108Z,10.21
2023-03-31T18:00:22.278Z,10.09
2023-03-31T18:05:48.104Z,9.86
2023-03-31T18:11:16.123Z,9.77
2023-03-31T18:16:41.139Z,9.64
2023-03-31T18:22:05.216Z,9.53
2023-03-31T18:27:36.073Z,9.45
2023-03-31T18:33:01.214Z,9.38
2023-03-31T18:38:27.117Z,9.37
2023-03-31T18:43:54.119Z,9.27
2023-03-31T18:49:20.113Z,9.24
2023-03-31T18:54:45.228Z,9.21
2023-03-31T19:00:14.244Z,9.09
2023-03-31T19:05:38.109Z,9.04
2023-03-31T19:11:13.147Z,9.06
2023-03-31T19:16:48.327Z,9.07
2023-03-31T19:22:14.120Z,9.11
2023-03-31T19:27:38.181Z,9.08
2023-03-31T19:33:08.159Z,9.10
2023-03-31T19:38:38.157Z,9.11
2023-03-31T19:44:03.139Z,9.08
2023-03-31T19:49:30.163Z,9.10
2023-03-31T19:54:56.031Z,9.02
2023-03-31T20:00:25.196Z,9.02
2023-03-31T20:05:53.220Z,9.01
2023-03-31T20:11:19.350Z,9.05
2023-03-31T20:16:45.147Z,9.06
2023-03-31T20:22:13.166Z,9.09
2023-03-31T20:27:38.212Z,9.05
2023-03-31T20:33:03.175Z,9.01
2023-03-31T20:38:31.162Z,8.97
2023-03-31T20:43:57.183Z,8.97
2023-03-31T20:49:22.265Z,8.95
2023-03-31T20:54:49.233Z,8.93
2023-03-31T21:00:15.223Z,8.93
2023-03-31T21:05:39.346Z,8.88
2023-03-31T21:11:08.289Z,8.83
2023-03-31T21:16:33.262Z,8.84
2023-03-31T21:21:58.217Z,8.83
2023-03-31T21:27:26.209Z,8.82
2023-03-31T21:32:51.343Z,8.77
2023-03-31T21:38:15.334Z,8.82
2023-03-31T21:43:44.230Z,8.77
2023-03-31T21:49:09.196Z,8.76
2023-03-31T21:54:34.278Z,8.74
2023-03-31T22:00:01.260Z,8.69
2023-03-31T22:05:26.205Z,8.66
2023-03-31T22:10:51.313Z,8.62
2023-03-31T22:16:25.294Z,8.64
2023-03-31T22:21:52.198Z,8.55
2023-03-31T22:27:17.231Z,8.52
2023-03-31T22:32:44.313Z,8.48
2023-03-31T22:38:09.226Z,8.44
2023-03-31T22:43:34.255Z,8.41
2023-03-31T22:49:02.229Z,8.43
2023-03-31T22:54:29.219Z,8.46
2023-03-31T22:59:54.237Z,8.44
2023-03-31T23:05:22.236Z,8.44
2023-03-31T23:10:47.244Z,8.48
2023-03-31T23:16:13.317Z,8.60
2023-03-31T23:21:41.276Z,8.61
2023-03-31T23:27:05.253Z,8.62
2023-03-31T23:32:30.249Z,8.67
2023-03-31T23:37:57.353Z,8.71
2023-03-31T23:43:23.260Z,8.74
2023-03-31T23:48:49.276Z,8.81
2023-03-31T23:54:17.263Z,8.83
2023-03-31T23:59:41.267Z,8.92
